Time;durP1;ratioP1;P1;durP2;ratioP2;P2;SDS_P1;SDS_P2;PMS_P1;PMS_P2;Temp;Humidity;BMP_temperature;BMP_pressure;BME280_temperature;BME280_humidity;BME280_pressure;Samples;Min_cycle;Max_cycle;Signal;HPM_P1;HPM_P2
2022/08/04 00:02:27;;;;;;;2.33;1.43;;;27.20;77.90;;;;;;5029596;28;20514;-91
2022/08/04 00:05:00;;;;;;;1.27;1.13;;;27.20;77.10;;;;;;5024652;28;20435;-91
2022/08/04 00:07:39;;;;;;;1.17;1.00;;;27.20;77.10;;;;;;5014261;28;20448;-91
2022/08/04 00:10:08;;;;;;;1.20;1.10;;;27.20;77.90;;;;;;5014234;28;20444;-92
2022/08/04 00:12:41;;;;;;;1.37;1.27;;;27.20;77.10;;;;;;5014202;28;20482;-89
2022/08/04 00:15:13;;;;;;;1.90;1.10;;;27.20;77.10;;;;;;5014159;28;20447;-92
2022/08/04 00:17:44;;;;;;;2.30;1.30;;;27.20;77.10;;;;;;5013928;28;20523;-92
2022/08/04 00:20:17;;;;;;;2.43;1.30;;;27.20;77.20;;;;;;5014074;28;20497;-91
2022/08/04 00:22:46;;;;;;;2.13;1.20;;;27.20;77.10;;;;;;5014018;28;20534;-90
2022/08/04 00:25:13;;;;;;;1.93;1.40;;;27.20;77.20;;;;;;5014010;28;20947;-92
2022/08/04 00:27:40;;;;;;;1.90;1.50;;;27.20;77.20;;;;;;5013983;28;20813;-91
2022/08/04 00:30:09;;;;;;;1.50;1.33;;;27.20;77.10;;;;;;5013583;28;20448;-92
2022/08/04 00:32:40;;;;;;;1.53;1.33;;;27.20;77.20;;;;;;5014470;28;20522;-91
2022/08/04 00:35:09;;;;;;;1.77;1.57;;;27.20;77.10;;;;;;5014326;28;20945;-91
2022/08/04 00:37:38;;;;;;;1.73;1.60;;;27.20;77.20;;;;;;5014270;28;20511;-90
2022/08/04 00:40:13;;;;;;;2.07;1.17;;;27.20;77.10;;;;;;5013901;28;20813;-91
2022/08/04 00:42:46;;;;;;;1.77;1.33;;;27.20;77.10;;;;;;5013992;28;20478;-91
2022/08/04 00:45:36;;;;;;;1.40;1.27;;;27.20;77.10;;;;;;5014048;28;20531;-92
2022/08/04 00:48:17;;;;;;;1.77;1.40;;;27.20;77.10;;;;;;5013813;28;20526;-90
2022/08/04 00:50:46;;;;;;;1.77;1.30;;;27.20;77.10;;;;;;5013871;28;20499;-92
2022/08/04 00:53:24;;;;;;;3.00;1.20;;;27.10;77.00;;;;;;5013874;28;20575;-92
2022/08/04 00:56:19;;;;;;;1.50;1.13;;;27.20;77.10;;;;;;5013569;28;20478;-92
2022/08/04 00:58:57;;;;;;;1.30;1.20;;;27.20;77.10;;;;;;5011897;28;20452;-91
2022/08/04 01:01:41;;;;;;;1.30;1.17;;;27.20;77.20;;;;;;5013705;28;20443;-92
2022/08/04 01:04:20;;;;;;;1.93;1.50;;;27.20;77.10;;;;;;5013755;28;20450;-92
2022/08/04 01:07:05;;;;;;;1.93;1.43;;;27.20;77.10;;;;;;5013869;28;20454;-90
2022/08/04 01:09:43;;;;;;;3.30;1.20;;;27.20;77.10;;;;;;5013698;28;20543;-90
2022/08/04 01:12:34;;;;;;;1.53;1.20;;;27.20;77.10;;;;;;5013616;28;20454;-90
2022/08/04 01:15:06;;;;;;;1.40;1.20;;;27.20;77.00;;;;;;5013727;28;20526;-90
2022/08/04 01:17:58;;;;;;;2.60;1.50;;;27.20;77.10;;;;;;5013828;28;20529;-90
2022/08/04 01:20:26;;;;;;;1.87;1.17;;;27.20;77.10;;;;;;5013426;28;20585;-91
2022/08/04 01:23:32;;;;;;;1.63;1.20;;;27.10;77.10;;;;;;5013585;28;20443;-91
2022/08/04 01:26:24;;;;;;;1.33;1.23;;;27.20;77.90;;;;;;5013469;28;20475;-91
2022/08/04 01:29:05;;;;;;;1.67;1.13;;;27.20;78.00;;;;;;5015433;28;20439;-91
2022/08/04 01:31:40;;;;;;;1.97;1.33;;;27.20;77.10;;;;;;5017125;28;20452;-92
2022/08/04 01:34:11;;;;;;;1.50;1.23;;;27.20;77.20;;;;;;5017182;28;20443;-91
2022/08/04 01:36:46;;;;;;;1.30;1.10;;;27.20;77.30;;;;;;5017067;28;20452;-91
2022/08/04 01:41:59;;;;;;;1.30;1.17;;;27.10;77.10;;;;;;5017079;28;20567;-91
2022/08/04 01:44:30;;;;;;;2.30;1.20;;;27.10;77.20;;;;;;5016825;28;20482;-91
2022/08/04 01:46:57;;;;;;;1.60;1.37;;;27.10;77.20;;;;;;5017191;28;20443;-91
2022/08/04 01:49:29;;;;;;;1.50;1.40;;;27.20;77.30;;;;;;5017911;28;20444;-91
2022/08/04 01:51:56;;;;;;;1.30;0.90;;;27.20;77.20;;;;;;5017472;28;20471;-92
2022/08/04 01:54:25;;;;;;;1.60;1.50;;;27.20;77.30;;;;;;5016517;28;20440;-91
2022/08/04 01:56:54;;;;;;;1.20;0.90;;;27.20;77.30;;;;;;5016419;28;20550;-90
2022/08/04 01:59:21;;;;;;;1.30;1.20;;;27.20;77.20;;;;;;5016760;28;20485;-89
2022/08/04 02:01:50;;;;;;;1.50;1.30;;;27.20;77.30;;;;;;5016585;28;21023;-90
2022/08/04 02:04:19;;;;;;;1.43;1.07;;;27.20;77.30;;;;;;5016567;28;20443;-90
2022/08/04 02:06:57;;;;;;;1.20;1.10;;;27.20;77.30;;;;;;5016378;28;20526;-91
2022/08/04 02:09:35;;;;;;;1.67;1.17;;;27.20;77.30;;;;;;5016296;28;20458;-92
2022/08/04 02:12:05;;;;;;;1.60;1.10;;;27.20;78.10;;;;;;5016126;28;20526;-91
2022/08/04 02:14:40;;;;;;;1.33;1.23;;;27.20;77.30;;;;;;5015992;28;20923;-91
2022/08/04 02:17:11;;;;;;;1.20;1.10;;;27.20;77.30;;;;;;5016145;28;20530;-90
2022/08/04 02:19:52;;;;;;;1.53;1.30;;;27.20;77.30;;;;;;5016032;28;20575;-90
2022/08/04 02:22:25;;;;;;;1.50;1.00;;;27.20;77.20;;;;;;5015939;28;20562;-90
2022/08/04 02:25:03;;;;;;;1.40;1.17;;;27.20;77.30;;;;;;5015971;28;20450;-90
2022/08/04 02:27:37;;;;;;;1.43;1.33;;;27.20;77.20;;;;;;5015886;28;20538;-90
2022/08/04 02:30:06;;;;;;;1.40;1.23;;;27.10;77.20;;;;;;5015844;28;20446;-91
2022/08/04 02:32:39;;;;;;;1.20;1.10;;;27.10;77.20;;;;;;5015786;28;20867;-91
2022/08/04 02:35:08;;;;;;;1.10;1.00;;;27.10;77.20;;;;;;5015706;28;20483;-91
2022/08/04 02:37:36;;;;;;;1.20;1.07;;;27.10;77.10;;;;;;5015725;28;20805;-90
2022/08/04 02:40:06;;;;;;;1.20;1.07;;;27.10;77.10;;;;;;5015102;28;20508;-91
2022/08/04 02:42:34;;;;;;;1.30;1.20;;;27.10;77.10;;;;;;5015491;28;20545;-90
2022/08/04 02:45:02;;;;;;;1.10;1.00;;;27.10;77.10;;;;;;5015649;28;20645;-91
2022/08/04 02:47:30;;;;;;;1.30;1.20;;;27.10;77.10;;;;;;5015185;28;21025;-91
2022/08/04 02:49:58;;;;;;;1.40;1.17;;;27.10;77.10;;;;;;5015121;28;20475;-90
2022/08/04 02:52:26;;;;;;;1.10;1.00;;;27.10;77.10;;;;;;5015298;28;20875;-91
2022/08/04 02:54:55;;;;;;;1.40;1.10;;;27.10;77.10;;;;;;5015054;28;20499;-91
2022/08/04 02:57:24;;;;;;;1.73;1.20;;;27.10;77.10;;;;;;5015370;28;20575;-91
2022/08/04 03:00:05;;;;;;;1.50;1.10;;;27.10;77.10;;;;;;5015367;28;20479;-91
2022/08/04 03:02:42;;;;;;;1.43;1.13;;;27.20;77.20;;;;;;5015299;28;20446;-91
2022/08/04 03:05:17;;;;;;;1.67;1.30;;;27.10;78.00;;;;;;5015391;28;20546;-89
2022/08/04 03:08:28;;;;;;;1.20;1.00;;;27.10;77.10;;;;;;5015226;28;20443;-91
2022/08/04 03:11:25;;;;;;;1.30;1.10;;;27.20;77.10;;;;;;5015109;28;20439;-91
2022/08/04 03:14:15;;;;;;;1.53;1.10;;;27.10;77.20;;;;;;5011786;28;20475;-91
2022/08/04 03:17:12;;;;;;;1.33;1.00;;;27.10;77.10;;;;;;5014876;28;20530;-91
2022/08/04 03:20:22;;;;;;;1.47;1.10;;;27.10;77.20;;;;;;5014665;28;20447;-91
2022/08/04 03:23:36;;;;;;;1.13;1.00;;;27.10;77.10;;;;;;5014900;28;20522;-91
2022/08/04 03:26:30;;;;;;;1.37;1.13;;;27.10;77.20;;;;;;4935917;29;21066;-87
2022/08/04 03:29:30;;;;;;;2.40;1.10;;;27.10;77.30;;;;;;4957458;29;20534;-91
2022/08/04 03:32:33;;;;;;;1.60;1.17;;;27.10;78.10;;;;;;5025815;28;20866;-91
2022/08/04 03:35:27;;;;;;;1.77;1.13;;;27.10;78.10;;;;;;5014659;28;20935;-91
2022/08/04 03:38:28;;;;;;;1.83;1.20;;;27.10;77.30;;;;;;5014626;28;20446;-90
2022/08/04 03:41:27;;;;;;;1.80;1.07;;;27.10;77.30;;;;;;5014528;28;20483;-89
2022/08/04 03:44:20;;;;;;;1.30;1.07;;;27.10;77.30;;;;;;5014460;28;20462;-90
2022/08/04 03:47:06;;;;;;;1.50;1.13;;;27.10;77.40;;;;;;5014829;28;21000;-90
2022/08/04 03:50:18;;;;;;;1.43;1.27;;;27.10;77.40;;;;;;5014382;28;20466;-91
2022/08/04 03:53:08;;;;;;;1.30;1.10;;;27.10;77.20;;;;;;5014093;28;20871;-91
2022/08/04 03:55:48;;;;;;;1.20;0.97;;;27.10;77.40;;;;;;5014212;28;20502;-91
2022/08/04 03:58:43;;;;;;;1.27;1.03;;;27.10;77.50;;;;;;5014107;28;21017;-90
2022/08/04 04:01:34;;;;;;;1.50;1.40;;;27.10;78.20;;;;;;5014243;28;20487;-90
2022/08/04 04:04:26;;;;;;;1.67;1.27;;;27.10;77.40;;;;;;5014111;28;20436;-91
2022/08/04 04:07:37;;;;;;;1.20;1.10;;;27.10;77.40;;;;;;5014211;28;20531;-92
2022/08/04 04:10:23;;;;;;;1.13;1.00;;;27.10;77.40;;;;;;4980287;28;20561;-91
2022/08/04 04:13:32;;;;;;;1.40;1.20;;;27.10;77.50;;;;;;5014086;28;21006;-90
2022/08/04 04:16:27;;;;;;;1.20;1.10;;;27.10;77.40;;;;;;4981595;28;20447;-90
2022/08/04 04:19:22;;;;;;;1.10;0.93;;;27.10;77.40;;;;;;5014518;28;20530;-91
2022/08/04 04:22:16;;;;;;;1.20;1.00;;;27.10;77.50;;;;;;5035857;28;20518;-89
2022/08/04 04:25:03;;;;;;;1.10;1.00;;;27.10;77.40;;;;;;5036062;28;20448;-88
2022/08/04 04:27:47;;;;;;;1.30;1.10;;;27.10;77.50;;;;;;5031653;28;20871;-91
2022/08/04 04:30:23;;;;;;;1.20;1.07;;;27.10;77.50;;;;;;5009308;28;20795;-87
2022/08/04 04:33:20;;;;;;;1.60;1.10;;;27.10;77.50;;;;;;4974931;28;20437;-90
2022/08/04 04:35:59;;;;;;;1.73;1.23;;;27.10;77.30;;;;;;4992025;28;20475;-88
2022/08/04 04:38:51;;;;;;;1.20;1.00;;;27.10;77.40;;;;;;5013931;28;20473;-91
2022/08/04 04:41:59;;;;;;;1.10;1.00;;;27.10;77.40;;;;;;5013543;28;20574;-91
2022/08/04 04:45:06;;;;;;;1.33;1.00;;;27.10;77.40;;;;;;4966435;28;20951;-88
2022/08/04 04:47:42;;;;;;;1.73;1.30;;;27.10;77.40;;;;;;4988973;28;20467;-91
2022/08/04 04:50:16;;;;;;;1.23;1.13;;;27.10;77.60;;;;;;4994102;28;20909;-91
2022/08/04 04:52:49;;;;;;;1.20;1.00;;;27.10;77.50;;;;;;4993986;28;20943;-91
2022/08/04 04:55:22;;;;;;;1.40;1.30;;;27.10;77.50;;;;;;4996554;28;20886;-90
2022/08/04 04:57:52;;;;;;;2.27;1.30;;;27.10;77.50;;;;;;4994051;28;20535;-93
2022/08/04 05:00:20;;;;;;;1.20;1.10;;;27.10;77.50;;;;;;4993894;28;20576;-90
2022/08/04 05:03:09;;;;;;;1.10;0.90;;;27.10;77.50;;;;;;4996336;28;20472;-89
2022/08/04 05:05:55;;;;;;;1.33;1.10;;;27.20;77.50;;;;;;4991504;28;20495;-89
2022/08/04 05:09:03;;;;;;;1.40;1.07;;;27.10;77.40;;;;;;5003965;28;20530;-89
2022/08/04 05:12:10;;;;;;;1.30;1.20;;;27.10;77.40;;;;;;4970138;28;20542;-91
2022/08/04 05:14:43;;;;;;;1.10;1.00;;;27.10;77.50;;;;;;4995034;28;20467;-90
2022/08/04 05:17:20;;;;;;;1.20;1.10;;;27.10;77.70;;;;;;5018109;28;20448;-88
2022/08/04 05:19:57;;;;;;;1.70;1.20;;;27.10;77.40;;;;;;5017259;28;20438;-91
2022/08/04 05:22:30;;;;;;;2.80;1.23;;;27.10;77.30;;;;;;5017329;28;20534;-91
2022/08/04 05:25:04;;;;;;;1.73;1.53;;;27.10;77.60;;;;;;5017206;28;20502;-90
2022/08/04 05:27:37;;;;;;;2.03;1.50;;;27.20;78.20;;;;;;5017432;28;20459;-90
2022/08/04 05:30:06;;;;;;;1.80;1.67;;;27.20;78.30;;;;;;5017873;28;20494;-91
2022/08/04 05:32:40;;;;;;;2.43;1.70;;;27.10;78.40;;;;;;5016974;28;20486;-87
2022/08/04 05:35:11;;;;;;;4.27;2.17;;;27.20;78.40;;;;;;5016622;28;20459;-88
2022/08/04 05:37:41;;;;;;;1.87;1.67;;;27.10;78.90;;;;;;5016930;28;20474;-86
2022/08/04 05:40:11;;;;;;;3.30;2.40;;;27.10;78.90;;;;;;5016540;28;20485;-88
2022/08/04 05:42:40;;;;;;;3.10;1.47;;;27.20;79.20;;;;;;5016289;28;20449;-88
2022/08/04 05:45:08;;;;;;;1.83;1.73;;;27.20;79.30;;;;;;5016439;28;20538;-87
2022/08/04 05:47:37;;;;;;;4.37;1.67;;;27.20;79.00;;;;;;5016605;28;20458;-87
2022/08/04 05:50:07;;;;;;;3.80;1.70;;;27.20;78.80;;;;;;5016280;28;20978;-87
2022/08/04 05:52:36;;;;;;;2.87;1.77;;;27.20;78.50;;;;;;5016452;28;20443;-88
2022/08/04 05:55:07;;;;;;;2.47;1.83;;;27.20;78.50;;;;;;5015907;28;20495;-88
2022/08/04 05:57:35;;;;;;;2.80;1.77;;;27.20;78.40;;;;;;5016209;28;21072;-88
2022/08/04 06:00:06;;;;;;;2.60;1.90;;;27.10;78.50;;;;;;5016066;28;20482;-88
2022/08/04 06:02:35;;;;;;;2.10;1.50;;;27.10;78.70;;;;;;5016129;28;21016;-88
2022/08/04 06:05:06;;;;;;;3.20;2.03;;;27.10;78.80;;;;;;5015978;28;20455;-87
2022/08/04 06:07:33;;;;;;;5.67;1.90;;;27.20;78.90;;;;;;5015795;28;20451;-88
2022/08/04 06:10:00;;;;;;;3.20;2.00;;;27.20;78.80;;;;;;5016083;28;20501;-88
2022/08/04 06:12:38;;;;;;;3.20;1.90;;;27.20;78.80;;;;;;5015890;28;20534;-88
2022/08/04 06:15:09;;;;;;;3.20;1.77;;;27.20;78.80;;;;;;5015025;28;20444;-88
2022/08/04 06:17:40;;;;;;;1.97;1.63;;;27.20;78.80;;;;;;5015592;28;20479;-88
2022/08/04 06:20:09;;;;;;;3.07;1.97;;;27.20;78.80;;;;;;5015704;28;20546;-88
2022/08/04 06:22:41;;;;;;;4.33;1.90;;;27.10;78.70;;;;;;5015789;28;20577;-88
2022/08/04 06:25:10;;;;;;;4.07;1.43;;;27.20;78.80;;;;;;5015918;28;20538;-88
2022/08/04 06:27:40;;;;;;;2.83;1.90;;;27.20;78.90;;;;;;5015791;28;20448;-88
2022/08/04 06:30:13;;;;;;;2.57;1.90;;;27.20;78.80;;;;;;5015892;28;20449;-88
2022/08/04 06:32:47;;;;;;;3.73;1.97;;;27.20;78.70;;;;;;5015999;28;20487;-88
2022/08/04 06:35:17;;;;;;;2.80;1.67;;;27.20;78.90;;;;;;5015881;28;20439;-88
2022/08/04 06:37:46;;;;;;;2.87;2.30;;;27.20;79.00;;;;;;5016085;28;20788;-88
2022/08/04 06:40:15;;;;;;;3.63;2.17;;;27.20;78.90;;;;;;5015986;28;20539;-88
2022/08/04 06:42:44;;;;;;;2.40;2.20;;;27.20;78.50;;;;;;5015592;28;20574;-88
2022/08/04 06:45:12;;;;;;;1.93;1.83;;;27.20;78.50;;;;;;5015844;28;20474;-92
2022/08/04 06:47:41;;;;;;;3.63;2.00;;;27.20;78.50;;;;;;5015737;28;20450;-88
2022/08/04 06:50:09;;;;;;;2.17;1.97;;;27.20;78.40;;;;;;5015427;28;20478;-88
2022/08/04 06:52:37;;;;;;;3.40;2.13;;;27.20;78.40;;;;;;5015645;28;20456;-88
2022/08/04 06:55:06;;;;;;;3.53;2.73;;;27.20;79.10;;;;;;5021174;28;20503;-88
2022/08/04 06:57:35;;;;;;;2.40;2.20;;;27.20;78.10;;;;;;5016638;28;20530;-89
2022/08/04 07:00:09;;;;;;;3.87;2.80;;;27.20;78.20;;;;;;5015476;28;20440;-87
2022/08/04 07:02:40;;;;;;;6.73;2.50;;;27.20;78.10;;;;;;5015840;28;20487;-90
2022/08/04 07:05:10;;;;;;;6.23;2.40;;;27.20;78.30;;;;;;5015841;28;20482;-88
2022/08/04 07:07:38;;;;;;;3.80;3.10;;;27.20;78.30;;;;;;5018237;28;20459;-86
2022/08/04 07:10:07;;;;;;;3.87;2.80;;;27.20;78.30;;;;;;5018627;28;20546;-90
2022/08/04 07:12:35;;;;;;;7.13;3.47;;;27.20;78.30;;;;;;5017403;28;20518;-88
2022/08/04 07:15:04;;;;;;;3.73;2.33;;;27.20;78.20;;;;;;5016229;28;21010;-90
2022/08/04 07:17:32;;;;;;;7.07;3.00;;;27.20;78.20;;;;;;5015967;28;20468;-89
2022/08/04 07:19:58;;;;;;;3.70;2.90;;;27.20;78.20;;;;;;5014801;28;20459;-86
2022/08/04 07:22:26;;;;;;;4.83;2.80;;;27.20;78.40;;;;;;5014843;28;20487;-87
2022/08/04 07:24:56;;;;;;;4.17;2.20;;;27.20;78.40;;;;;;5013987;28;20466;-83
2022/08/04 07:27:23;;;;;;;3.30;3.00;;;27.20;78.50;;;;;;4993332;28;20449;-85
2022/08/04 07:29:51;;;;;;;3.83;2.50;;;27.20;78.40;;;;;;4975533;28;20454;-84
2022/08/04 07:32:20;;;;;;;3.20;2.90;;;27.20;78.50;;;;;;4974953;28;20457;-85
2022/08/04 07:34:49;;;;;;;3.40;2.23;;;27.30;78.70;;;;;;4975398;28;20536;-85
2022/08/04 07:37:17;;;;;;;6.50;2.43;;;27.20;78.50;;;;;;4974705;28;20492;-85
2022/08/04 07:39:44;;;;;;;3.03;2.20;;;27.20;78.50;;;;;;4974950;28;20450;-86
2022/08/04 07:42:11;;;;;;;5.03;2.20;;;27.20;78.50;;;;;;4975122;28;20576;-85
2022/08/04 07:44:39;;;;;;;3.93;2.60;;;27.20;78.60;;;;;;4974684;28;20457;-85
2022/08/04 07:47:07;;;;;;;4.60;2.10;;;27.20;78.50;;;;;;4987706;28;20539;-85
2022/08/04 07:49:36;;;;;;;5.30;2.50;;;27.20;78.30;;;;;;4993788;28;20444;-85
2022/08/04 07:52:04;;;;;;;3.20;2.43;;;27.30;78.20;;;;;;4994601;28;20448;-90
2022/08/04 07:54:32;;;;;;;2.27;1.80;;;27.30;78.20;;;;;;4995627;28;20551;-91
2022/08/04 07:57:00;;;;;;;2.40;1.93;;;27.30;78.20;;;;;;4994541;28;20528;-91
2022/08/04 07:59:28;;;;;;;3.23;2.13;;;27.30;78.00;;;;;;4995452;28;20536;-91
2022/08/04 08:01:58;;;;;;;2.97;2.67;;;27.20;78.00;;;;;;4994721;28;20615;-89
2022/08/04 08:04:26;;;;;;;8.47;2.60;;;27.30;78.10;;;;;;4994542;28;20479;-88
2022/08/04 08:06:54;;;;;;;5.53;2.80;;;27.30;78.30;;;;;;4994692;28;20448;-88
2022/08/04 08:09:21;;;;;;;4.97;2.53;;;27.30;78.20;;;;;;4977665;28;20537;-87
2022/08/04 08:11:50;;;;;;;2.37;2.10;;;27.30;78.30;;;;;;4974796;28;20931;-88
2022/08/04 08:14:18;;;;;;;2.20;2.00;;;27.20;78.20;;;;;;4974550;28;20500;-87
2022/08/04 08:16:45;;;;;;;2.63;1.83;;;27.30;78.30;;;;;;4974714;28;20549;-88
2022/08/04 08:19:13;;;;;;;3.20;2.37;;;27.30;78.30;;;;;;4974511;28;20493;-87
2022/08/04 08:21:40;;;;;;;2.30;2.10;;;27.20;78.30;;;;;;4974581;28;20472;-86
2022/08/04 08:24:10;;;;;;;6.20;2.40;;;27.30;78.40;;;;;;4974501;28;20453;-88
2022/08/04 08:26:37;;;;;;;4.90;2.60;;;27.30;78.40;;;;;;4974533;28;20544;-88
2022/08/04 08:29:04;;;;;;;2.73;1.70;;;27.30;78.30;;;;;;4974853;28;20481;-89
2022/08/04 08:31:31;;;;;;;2.20;2.00;;;27.30;78.20;;;;;;4974452;28;20464;-88
2022/08/04 08:34:00;;;;;;;2.10;1.80;;;27.30;78.20;;;;;;4975158;28;20837;-90
2022/08/04 08:36:32;;;;;;;3.10;1.93;;;27.30;78.20;;;;;;4974872;28;20539;-87
2022/08/04 08:39:05;;;;;;;2.13;1.93;;;27.30;78.30;;;;;;4975107;28;20525;-92
2022/08/04 08:42:04;;;;;;;3.57;2.13;;;27.30;78.30;;;;;;4974949;28;20622;-88
2022/08/04 08:45:15;;;;;;;2.20;1.90;;;27.30;78.20;;;;;;4974837;28;20520;-88
2022/08/04 08:48:07;;;;;;;4.70;2.50;;;27.30;78.30;;;;;;4968051;28;20469;-89
2022/08/04 08:50:53;;;;;;;3.10;1.80;;;27.30;78.30;;;;;;4980309;28;20497;-89
2022/08/04 08:53:36;;;;;;;5.83;2.37;;;27.30;78.20;;;;;;4994757;28;20441;-88
2022/08/04 08:56:16;;;;;;;4.67;1.80;;;27.30;78.20;;;;;;4993562;28;20489;-87
2022/08/04 08:58:55;;;;;;;2.00;1.90;;;27.30;78.20;;;;;;4979933;28;20881;-89
2022/08/04 09:01:39;;;;;;;2.13;1.80;;;27.30;78.20;;;;;;4974896;28;20524;-89
2022/08/04 09:04:33;;;;;;;3.07;1.90;;;27.30;78.00;;;;;;4974828;28;20527;-88
2022/08/04 09:07:24;;;;;;;1.60;1.47;;;27.30;78.00;;;;;;4972263;28;20450;-89
2022/08/04 09:10:20;;;;;;;2.20;2.00;;;27.30;78.00;;;;;;4974591;28;20536;-88
2022/08/04 09:12:52;;;;;;;2.63;2.23;;;27.30;78.00;;;;;;4972967;28;20492;-89
2022/08/04 09:15:28;;;;;;;2.10;1.87;;;27.30;78.10;;;;;;4974630;28;20441;-89
2022/08/04 09:17:59;;;;;;;1.90;1.80;;;27.30;78.00;;;;;;4974774;28;20441;-90
2022/08/04 09:20:34;;;;;;;2.23;1.60;;;27.30;78.00;;;;;;4974383;28;20466;-89
2022/08/04 09:23:09;;;;;;;3.03;1.80;;;27.30;78.00;;;;;;4974218;28;20484;-90
2022/08/04 09:25:44;;;;;;;2.40;1.90;;;27.30;78.00;;;;;;4974478;28;20527;-89
2022/08/04 09:28:19;;;;;;;5.20;2.00;;;27.30;78.00;;;;;;4974439;28;20996;-90
2022/08/04 09:30:56;;;;;;;2.23;1.70;;;27.30;78.00;;;;;;4974207;28;20445;-84
2022/08/04 09:33:35;;;;;;;2.07;1.63;;;27.30;78.00;;;;;;4974222;28;20449;-87
2022/08/04 09:36:07;;;;;;;2.27;1.73;;;27.30;77.90;;;;;;4974462;28;20925;-87
2022/08/04 09:38:39;;;;;;;1.70;1.60;;;27.30;78.00;;;;;;4973828;28;20437;-87
2022/08/04 09:41:23;;;;;;;2.80;1.80;;;27.30;78.10;;;;;;4974434;28;20485;-87
2022/08/04 09:44:01;;;;;;;1.80;1.70;;;27.30;78.10;;;;;;4974129;28;20472;-87
2022/08/04 09:46:37;;;;;;;2.13;2.03;;;27.30;78.10;;;;;;4974543;28;21007;-89
2022/08/04 09:49:13;;;;;;;2.90;1.80;;;27.30;78.10;;;;;;4975801;28;20452;-87
2022/08/04 09:51:52;;;;;;;1.63;1.50;;;27.30;78.00;;;;;;4976450;28;20445;-84
2022/08/04 09:54:27;;;;;;;4.07;1.87;;;27.40;78.10;;;;;;4977298;28;20467;-87
2022/08/04 09:57:04;;;;;;;1.87;1.60;;;27.30;78.00;;;;;;4977005;28;20480;-87
2022/08/04 09:59:41;;;;;;;1.90;1.63;;;27.40;78.10;;;;;;4977704;28;20456;-87
2022/08/04 10:02:13;;;;;;;2.07;1.87;;;27.40;78.10;;;;;;4976673;28;20576;-86
2022/08/04 10:04:43;;;;;;;2.20;2.00;;;27.40;78.10;;;;;;4977569;28;20444;-86
2022/08/04 10:07:24;;;;;;;1.87;1.60;;;27.40;78.20;;;;;;4977331;28;20860;-86
2022/08/04 10:10:10;;;;;;;2.20;1.57;;;27.40;78.10;;;;;;4977290;28;20442;-86
2022/08/04 10:12:47;;;;;;;1.60;1.40;;;27.40;78.10;;;;;;4976878;28;20495;-87
2022/08/04 10:15:19;;;;;;;2.50;1.47;;;27.40;78.10;;;;;;4976832;28;20477;-86
2022/08/04 10:18:09;;;;;;;4.03;2.10;;;27.40;78.10;;;;;;4976667;28;20477;-86
2022/08/04 10:20:48;;;;;;;1.70;1.60;;;27.40;78.10;;;;;;4976614;28;20477;-86
2022/08/04 10:23:26;;;;;;;2.90;1.83;;;27.40;78.10;;;;;;4976835;28;20984;-88
2022/08/04 10:26:05;;;;;;;2.80;1.87;;;27.40;78.10;;;;;;4979432;28;20540;-87
2022/08/04 10:28:40;;;;;;;2.17;1.77;;;27.40;78.20;;;;;;4979427;28;20540;-86
2022/08/04 10:31:11;;;;;;;3.00;1.87;;;27.40;78.20;;;;;;4978134;28;20459;-87
2022/08/04 10:33:46;;;;;;;1.87;1.77;;;27.40;78.30;;;;;;4977140;28;20445;-86
2022/08/04 10:36:19;;;;;;;2.00;1.90;;;27.30;78.20;;;;;;4976760;28;20532;-87
2022/08/04 10:38:52;;;;;;;4.20;1.90;;;27.40;78.30;;;;;;4976854;28;20852;-87
2022/08/04 10:41:37;;;;;;;1.80;1.57;;;27.30;78.20;;;;;;4976699;28;20516;-88
2022/08/04 10:44:25;;;;;;;10.30;2.40;;;27.40;78.30;;;;;;4976380;28;20736;-90
2022/08/04 10:46:57;;;;;;;2.23;2.03;;;27.40;78.30;;;;;;4976215;28;20484;-87
2022/08/04 10:49:37;;;;;;;3.50;2.20;;;27.40;78.40;;;;;;4976554;28;20504;-88
2022/08/04 10:52:11;;;;;;;9.30;2.33;;;27.40;78.40;;;;;;4976159;28;20488;-87
2022/08/04 10:54:48;;;;;;;3.00;2.00;;;27.40;78.50;;;;;;4975995;28;20929;-87
2022/08/04 10:57:20;;;;;;;4.03;2.00;;;27.40;78.50;;;;;;4976549;28;20964;-87
2022/08/04 10:59:56;;;;;;;2.63;1.60;;;27.40;78.50;;;;;;4975651;28;20450;-87
2022/08/04 11:02:34;;;;;;;3.33;2.47;;;27.40;78.50;;;;;;4977701;28;20578;-87
2022/08/04 11:05:12;;;;;;;4.33;1.73;;;27.40;78.50;;;;;;4976555;28;20532;-87
2022/08/04 11:07:43;;;;;;;3.50;1.80;;;27.40;78.50;;;;;;4976768;28;20623;-88
2022/08/04 11:10:12;;;;;;;2.47;1.60;;;27.40;78.50;;;;;;4976609;28;20441;-87
2022/08/04 11:12:42;;;;;;;4.23;2.40;;;27.40;78.60;;;;;;4976052;28;20536;-88
2022/08/04 11:15:13;;;;;;;2.63;2.30;;;27.40;78.60;;;;;;4975881;28;20452;-87
2022/08/04 11:17:45;;;;;;;3.50;1.80;;;27.40;78.60;;;;;;4975868;28;20449;-88
2022/08/04 11:20:17;;;;;;;2.13;1.50;;;27.40;78.60;;;;;;4975866;28;20458;-88
2022/08/04 11:22:52;;;;;;;6.97;1.60;;;27.40;78.60;;;;;;4976056;28;20575;-87
2022/08/04 11:25:22;;;;;;;2.00;1.80;;;27.40;78.70;;;;;;4976208;28;20437;-88
2022/08/04 11:27:59;;;;;;;3.47;1.90;;;27.40;78.70;;;;;;4976105;28;20575;-88
2022/08/04 11:30:32;;;;;;;3.97;1.80;;;27.40;78.60;;;;;;4976051;28;20486;-89
2022/08/04 11:33:09;;;;;;;5.77;1.93;;;27.40;78.60;;;;;;4976549;28;20902;-86
2022/08/04 11:35:44;;;;;;;2.23;1.77;;;27.40;78.60;;;;;;4975825;28;20492;-87
2022/08/04 11:38:19;;;;;;;3.17;1.60;;;27.40;78.70;;;;;;4975924;28;20442;-86
2022/08/04 11:40:51;;;;;;;1.60;1.50;;;27.40;78.80;;;;;;4975927;28;20508;-88
2022/08/04 11:43:27;;;;;;;4.57;1.70;;;27.40;78.80;;;;;;4975420;28;20521;-89
2022/08/04 11:45:59;;;;;;;3.20;1.90;;;27.50;78.80;;;;;;4975930;28;20549;-88
2022/08/04 11:48:34;;;;;;;5.80;1.80;;;27.50;78.80;;;;;;4975826;28;20441;-88
2022/08/04 11:51:08;;;;;;;2.67;1.57;;;27.50;78.90;;;;;;4975423;28;20468;-87
2022/08/04 11:53:38;;;;;;;10.13;1.80;;;27.50;78.70;;;;;;4975568;28;20776;-88
2022/08/04 11:56:09;;;;;;;2.73;1.77;;;27.40;78.70;;;;;;4975489;28;20501;-86
2022/08/04 11:58:37;;;;;;;3.20;1.70;;;27.50;78.70;;;;;;4976207;28;20528;-86
2022/08/04 12:01:11;;;;;;;8.27;2.10;;;27.50;78.70;;;;;;4975838;28;20896;-86
2022/08/04 12:03:48;;;;;;;2.07;1.87;;;27.50;78.70;;;;;;4975235;28;20485;-87
2022/08/04 12:06:21;;;;;;;2.50;1.80;;;27.50;78.60;;;;;;4975583;28;20453;-90
2022/08/04 20:45:18;;;;;;;1.70;1.60;;;27.40;79.80;;;;;;4994610;28;20478;-91
2022/08/04 20:47:45;;;;;;;3.23;2.07;;;27.40;79.80;;;;;;4994382;28;20471;-88
2022/08/04 20:50:13;;;;;;;2.87;1.80;;;27.40;80.20;;;;;;5007696;28;20470;-87
2022/08/04 20:52:42;;;;;;;2.90;1.90;;;27.40;80.00;;;;;;5013555;28;20538;-86
2022/08/04 20:55:09;;;;;;;2.40;1.90;;;27.40;79.80;;;;;;5013430;28;20451;-85
2022/08/04 20:57:36;;;;;;;2.50;2.17;;;27.50;79.70;;;;;;5013711;28;20444;-88
2022/08/04 21:00:04;;;;;;;1.83;1.70;;;27.50;79.50;;;;;;5013565;28;20447;-85
2022/08/04 21:02:32;;;;;;;2.70;2.50;;;27.50;79.40;;;;;;5013367;28;20950;-87
2022/08/04 21:04:59;;;;;;;1.60;1.40;;;27.50;79.30;;;;;;5013599;28;20446;-86
2022/08/04 21:07:26;;;;;;;2.63;1.70;;;27.50;79.30;;;;;;5013546;28;20450;-88
2022/08/04 21:09:53;;;;;;;4.37;2.07;;;27.50;79.20;;;;;;5013413;28;20547;-86
2022/08/04 21:12:20;;;;;;;1.70;1.60;;;27.50;79.20;;;;;;5013627;28;20447;-86
2022/08/04 21:14:47;;;;;;;1.93;1.80;;;27.50;79.20;;;;;;5013800;28;20545;-88
2022/08/04 21:17:15;;;;;;;3.43;1.90;;;27.50;79.10;;;;;;5013595;28;20546;-87
2022/08/04 21:19:44;;;;;;;2.00;1.83;;;27.50;79.10;;;;;;5013363;28;20481;-88
2022/08/04 21:22:12;;;;;;;2.30;2.10;;;27.50;80.00;;;;;;5013685;28;20450;-88
2022/08/04 21:24:39;;;;;;;3.33;1.93;;;27.50;79.10;;;;;;5013381;28;20498;-85
2022/08/04 21:27:07;;;;;;;2.40;2.20;;;27.50;79.10;;;;;;5013692;28;20502;-88
2022/08/04 21:29:34;;;;;;;1.93;1.80;;;27.50;79.00;;;;;;5013548;28;20474;-86
2022/08/04 21:32:01;;;;;;;2.70;2.00;;;27.50;79.00;;;;;;5013379;28;20445;-88
2022/08/04 21:34:28;;;;;;;4.23;1.67;;;27.50;79.00;;;;;;5013308;28;20490;-85
2022/08/04 21:36:56;;;;;;;2.17;1.57;;;27.50;79.90;;;;;;5013300;28;20538;-88
2022/08/04 21:39:23;;;;;;;2.03;1.60;;;27.60;79.10;;;;;;5014488;28;20452;-89
2022/08/04 21:41:50;;;;;;;2.77;1.60;;;27.60;79.10;;;;;;5014410;28;20503;-87
2022/08/04 21:44:17;;;;;;;1.50;1.40;;;27.50;79.00;;;;;;5015153;28;20495;-88
2022/08/04 21:46:44;;;;;;;2.53;1.70;;;27.50;79.10;;;;;;5017579;28;20477;-87
2022/08/04 21:49:11;;;;;;;1.73;1.63;;;27.50;79.00;;;;;;5017971;28;20537;-87
2022/08/04 21:51:40;;;;;;;1.60;1.50;;;27.50;79.00;;;;;;5017853;28;20530;-88
2022/08/04 21:54:09;;;;;;;1.90;1.80;;;27.50;79.00;;;;;;5017519;28;20774;-89
2022/08/04 21:56:36;;;;;;;1.50;1.40;;;27.50;79.00;;;;;;5017540;28;21002;-89
2022/08/04 21:59:03;;;;;;;1.90;1.70;;;27.50;78.90;;;;;;5016907;28;20442;-88
2022/08/04 22:01:30;;;;;;;4.20;1.80;;;27.50;79.80;;;;;;5016921;28;20440;-87
2022/08/04 22:03:57;;;;;;;1.70;1.50;;;27.50;78.90;;;;;;5017377;28;20494;-89
2022/08/04 22:06:24;;;;;;;2.17;1.97;;;27.50;78.70;;;;;;5012535;28;20451;-85
2022/08/04 22:08:51;;;;;;;1.37;1.27;;;27.50;78.60;;;;;;5008562;28;20483;-88
2022/08/04 22:11:30;;;;;;;1.50;1.40;;;27.50;78.80;;;;;;5009007;28;20444;-88